sensor_id;sensor_type;location;lat;lon;timestamp;pressure;altitude;pressure_sealevel;temperature;humidity
77778;BME280;66966;-34.746;138.604;2023-02-28T00:01:37;101331.21;;;22.60;34.19
77778;BME280;66966;-34.746;138.604;2023-02-28T00:04:03;101326.02;;;22.48;34.34
77778;BME280;66966;-34.746;138.604;2023-02-28T00:06:28;101327.50;;;22.76;33.36
77778;BME280;66966;-34.746;138.604;2023-02-28T00:08:53;101331.68;;;22.71;32.93
77778;BME280;66966;-34.746;138.604;2023-02-28T00:11:19;101331.59;;;22.67;32.97
77778;BME280;66966;-34.746;138.604;2023-02-28T00:13:46;101335.33;;;22.49;33.55
77778;BME280;66966;-34.746;138.604;2023-02-28T00:16:11;101334.81;;;22.57;33.33
77778;BME280;66966;-34.746;138.604;2023-02-28T00:18:35;101336.19;;;23.05;32.49
77778;BME280;66966;-34.746;138.604;2023-02-28T00:21:00;101326.56;;;22.99;32.76
77778;BME280;66966;-34.746;138.604;2023-02-28T00:23:26;101329.97;;;23.12;33.39
77778;BME280;66966;-34.746;138.604;2023-02-28T00:25:51;101332.14;;;23.06;32.92
77778;BME280;66966;-34.746;138.604;2023-02-28T00:28:16;101333.70;;;23.47;32.46
77778;BME280;66966;-34.746;138.604;2023-02-28T00:30:41;101334.69;;;23.11;32.75
77778;BME280;66966;-34.746;138.604;2023-02-28T00:33:07;101336.34;;;23.41;32.59
77778;BME280;66966;-34.746;138.604;2023-02-28T00:35:32;101335.52;;;23.06;32.45
77778;BME280;66966;-34.746;138.604;2023-02-28T00:37:57;101328.37;;;23.18;33.47
77778;BME280;66966;-34.746;138.604;2023-02-28T00:40:23;101325.50;;;22.83;33.05
77778;BME280;66966;-34.746;138.604;2023-02-28T00:42:48;101323.93;;;23.20;32.53
77778;BME280;66966;-34.746;138.604;2023-02-28T00:45:13;101319.51;;;23.26;32.27
77778;BME280;66966;-34.746;138.604;2023-02-28T00:47:39;101317.73;;;23.36;32.22
77778;BME280;66966;-34.746;138.604;2023-02-28T00:50:05;101315.88;;;23.39;32.03
77778;BME280;66966;-34.746;138.604;2023-02-28T00:52:30;101318.44;;;23.57;32.30
77778;BME280;66966;-34.746;138.604;2023-02-28T00:54:55;101322.26;;;23.21;32.37
77778;BME280;66966;-34.746;138.604;2023-02-28T00:57:20;101326.06;;;23.08;32.63
77778;BME280;66966;-34.746;138.604;2023-02-28T00:59:46;101319.33;;;22.99;32.76
77778;BME280;66966;-34.746;138.604;2023-02-28T01:02:11;101312.59;;;23.10;33.47
77778;BME280;66966;-34.746;138.604;2023-02-28T01:04:37;101316.04;;;23.26;32.56
77778;BME280;66966;-34.746;138.604;2023-02-28T01:07:02;101318.16;;;23.30;32.33
77778;BME280;66966;-34.746;138.604;2023-02-28T01:09:27;101312.41;;;23.23;32.36
77778;BME280;66966;-34.746;138.604;2023-02-28T01:11:53;101313.61;;;23.53;32.12
77778;BME280;66966;-34.746;138.604;2023-02-28T01:14:18;101314.41;;;23.74;32.02
77778;BME280;66966;-34.746;138.604;2023-02-28T01:16:43;101325.34;;;23.56;31.32
77778;BME280;66966;-34.746;138.604;2023-02-28T01:19:09;101323.58;;;23.46;31.71
77778;BME280;66966;-34.746;138.604;2023-02-28T01:21:34;101318.76;;;23.38;32.01
77778;BME280;66966;-34.746;138.604;2023-02-28T01:24:00;101320.67;;;23.67;32.27
77778;BME280;66966;-34.746;138.604;2023-02-28T01:26:25;101320.00;;;23.53;31.88
77778;BME280;66966;-34.746;138.604;2023-02-28T01:28:51;101309.94;;;23.47;31.89
77778;BME280;66966;-34.746;138.604;2023-02-28T01:31:15;101308.79;;;23.43;32.43
77778;BME280;66966;-34.746;138.604;2023-02-28T01:33:41;101305.66;;;23.46;32.48
77778;BME280;66966;-34.746;138.604;2023-02-28T01:36:09;101298.92;;;23.95;31.76
77778;BME280;66966;-34.746;138.604;2023-02-28T01:38:33;101286.38;;;24.14;30.66
77778;BME280;66966;-34.746;138.604;2023-02-28T01:40:57;101284.96;;;23.79;30.68
77778;BME280;66966;-34.746;138.604;2023-02-28T01:43:24;101283.44;;;24.09;31.10
77778;BME280;66966;-34.746;138.604;2023-02-28T01:45:47;101278.56;;;24.30;30.52
77778;BME280;66966;-34.746;138.604;2023-02-28T01:48:13;101280.07;;;24.14;31.03
77778;BME280;66966;-34.746;138.604;2023-02-28T01:50:43;101288.12;;;23.97;31.05
77778;BME280;66966;-34.746;138.604;2023-02-28T01:53:06;101272.70;;;24.31;30.30
77778;BME280;66966;-34.746;138.604;2023-02-28T01:55:29;101259.93;;;24.24;30.54
77778;BME280;66966;-34.746;138.604;2023-02-28T01:57:57;101256.21;;;23.94;30.30
77778;BME280;66966;-34.746;138.604;2023-02-28T02:00:23;101253.86;;;24.38;30.68
77778;BME280;66966;-34.746;138.604;2023-02-28T02:02:51;101244.67;;;24.25;30.10
77778;BME280;66966;-34.746;138.604;2023-02-28T02:05:12;101246.96;;;24.34;30.45
77778;BME280;66966;-34.746;138.604;2023-02-28T02:07:38;101248.20;;;24.51;30.59
77778;BME280;66966;-34.746;138.604;2023-02-28T02:10:04;101240.58;;;24.97;30.36
77778;BME280;66966;-34.746;138.604;2023-02-28T02:12:32;101234.44;;;24.99;29.56
77778;BME280;66966;-34.746;138.604;2023-02-28T02:15:02;101228.01;;;24.89;29.57
77778;BME280;66966;-34.746;138.604;2023-02-28T02:17:25;101222.05;;;24.59;29.51
77778;BME280;66966;-34.746;138.604;2023-02-28T02:19:57;101228.64;;;24.50;29.31
77778;BME280;66966;-34.746;138.604;2023-02-28T02:22:25;101234.96;;;24.66;29.10
77778;BME280;66966;-34.746;138.604;2023-02-28T02:36:41;101201.18;;;25.66;27.86
77778;BME280;66966;-34.746;138.604;2023-02-28T02:39:08;101203.61;;;25.38;28.31
77778;BME280;66966;-34.746;138.604;2023-02-28T02:41:35;101212.25;;;25.47;27.81
77778;BME280;66966;-34.746;138.604;2023-02-28T02:43:58;101222.93;;;25.21;27.58
77778;BME280;66966;-34.746;138.604;2023-02-28T02:46:23;101217.93;;;25.21;27.96
77778;BME280;66966;-34.746;138.604;2023-02-28T02:48:46;101215.09;;;25.48;28.27
77778;BME280;66966;-34.746;138.604;2023-02-28T02:51:15;101221.89;;;25.44;27.91
77778;BME280;66966;-34.746;138.604;2023-02-28T02:53:40;101222.59;;;25.37;28.14
77778;BME280;66966;-34.746;138.604;2023-02-28T02:56:02;101222.00;;;25.79;28.13
77778;BME280;66966;-34.746;138.604;2023-02-28T02:58:29;101216.07;;;25.74;27.94
77778;BME280;66966;-34.746;138.604;2023-02-28T03:00:55;101214.80;;;25.64;28.19
77778;BME280;66966;-34.746;138.604;2023-02-28T03:03:18;101212.90;;;25.62;28.10
77778;BME280;66966;-34.746;138.604;2023-02-28T03:05:46;101207.32;;;25.78;28.61
77778;BME280;66966;-34.746;138.604;2023-02-28T03:08:08;101206.88;;;25.68;27.84
77778;BME280;66966;-34.746;138.604;2023-02-28T03:10:36;101206.47;;;25.91;28.15
77778;BME280;66966;-34.746;138.604;2023-02-28T03:13:17;101203.68;;;25.96;27.42
77778;BME280;66966;-34.746;138.604;2023-02-28T03:15:27;101209.59;;;26.10;27.13
77778;BME280;66966;-34.746;138.604;2023-02-28T03:18:00;101202.30;;;26.07;26.73
77778;BME280;66966;-34.746;138.604;2023-02-28T03:20:21;101201.85;;;26.27;26.24
77778;BME280;66966;-34.746;138.604;2023-02-28T03:22:51;101197.76;;;26.20;26.72
77778;BME280;66966;-34.746;138.604;2023-02-28T03:25:08;101199.61;;;26.22;26.47
77778;BME280;66966;-34.746;138.604;2023-02-28T03:27:33;101202.90;;;25.78;27.32
77778;BME280;66966;-34.746;138.604;2023-02-28T03:30:01;101191.64;;;25.64;26.84
77778;BME280;66966;-34.746;138.604;2023-02-28T03:32:25;101189.00;;;25.87;26.71
77778;BME280;66966;-34.746;138.604;2023-02-28T03:34:49;101182.98;;;25.80;26.54
77778;BME280;66966;-34.746;138.604;2023-02-28T03:37:15;101189.21;;;25.80;26.57
77778;BME280;66966;-34.746;138.604;2023-02-28T03:39:39;101200.61;;;25.81;26.10
77778;BME280;66966;-34.746;138.604;2023-02-28T03:42:04;101219.07;;;25.68;26.31
77778;BME280;66966;-34.746;138.604;2023-02-28T03:44:30;101227.89;;;25.80;26.24
77778;BME280;66966;-34.746;138.604;2023-02-28T03:46:56;101228.20;;;25.86;26.19
77778;BME280;66966;-34.746;138.604;2023-02-28T03:49:21;101231.69;;;25.83;25.85
77778;BME280;66966;-34.746;138.604;2023-02-28T03:51:43;101239.93;;;26.01;26.41
77778;BME280;66966;-34.746;138.604;2023-02-28T03:54:11;101235.64;;;25.80;26.22
77778;BME280;66966;-34.746;138.604;2023-02-28T03:56:37;101236.91;;;26.04;25.94
77778;BME280;66966;-34.746;138.604;2023-02-28T03:59:04;101237.39;;;25.83;25.93
77778;BME280;66966;-34.746;138.604;2023-02-28T04:01:27;101228.97;;;26.08;25.72
77778;BME280;66966;-34.746;138.604;2023-02-28T04:03:50;101214.09;;;25.93;24.59
77778;BME280;66966;-34.746;138.604;2023-02-28T04:06:16;101213.09;;;25.38;24.90
77778;BME280;66966;-34.746;138.604;2023-02-28T04:08:39;101208.17;;;25.70;25.09
77778;BME280;66966;-34.746;138.604;2023-02-28T04:11:08;101193.99;;;25.81;25.09
77778;BME280;66966;-34.746;138.604;2023-02-28T04:13:30;101190.59;;;25.91;24.99
77778;BME280;66966;-34.746;138.604;2023-02-28T04:15:55;101190.51;;;25.61;24.99
77778;BME280;66966;-34.746;138.604;2023-02-28T04:18:20;101191.12;;;25.76;25.22
77778;BME280;66966;-34.746;138.604;2023-02-28T04:20:45;101192.68;;;25.79;25.12
77778;BME280;66966;-34.746;138.604;2023-02-28T04:23:11;101203.18;;;25.98;24.56
77778;BME280;66966;-34.746;138.604;2023-02-28T04:25:37;101204.30;;;26.08;24.51
77778;BME280;66966;-34.746;138.604;2023-02-28T04:28:02;101212.15;;;25.69;24.49
77778;BME280;66966;-34.746;138.604;2023-02-28T04:30:27;101206.63;;;25.52;25.01
77778;BME280;66966;-34.746;138.604;2023-02-28T04:32:52;101197.96;;;25.58;24.76
77778;BME280;66966;-34.746;138.604;2023-02-28T04:35:17;101202.05;;;25.65;24.87
77778;BME280;66966;-34.746;138.604;2023-02-28T04:37:43;101200.62;;;25.21;25.41
77778;BME280;66966;-34.746;138.604;2023-02-28T04:40:09;101194.47;;;25.39;26.22
77778;BME280;66966;-34.746;138.604;2023-02-28T04:42:33;101180.41;;;25.33;26.95
77778;BME280;66966;-34.746;138.604;2023-02-28T04:44:59;101184.93;;;25.68;26.93
77778;BME280;66966;-34.746;138.604;2023-02-28T04:47:24;101185.81;;;25.58;26.49
77778;BME280;66966;-34.746;138.604;2023-02-28T04:49:50;101189.52;;;25.50;26.25
77778;BME280;66966;-34.746;138.604;2023-02-28T04:52:14;101174.50;;;25.48;26.67
77778;BME280;66966;-34.746;138.604;2023-02-28T04:54:40;101155.33;;;25.50;26.81
77778;BME280;66966;-34.746;138.604;2023-02-28T04:57:05;101164.66;;;25.69;26.86
77778;BME280;66966;-34.746;138.604;2023-02-28T04:59:30;101170.33;;;25.39;26.86
77778;BME280;66966;-34.746;138.604;2023-02-28T05:01:56;101175.01;;;25.71;26.67
77778;BME280;66966;-34.746;138.604;2023-02-28T05:04:21;101170.16;;;25.38;26.66
77778;BME280;66966;-34.746;138.604;2023-02-28T05:06:46;101163.48;;;25.18;26.71
77778;BME280;66966;-34.746;138.604;2023-02-28T05:09:11;101157.98;;;25.54;26.75
77778;BME280;66966;-34.746;138.604;2023-02-28T05:11:37;101156.61;;;25.19;26.42
77778;BME280;66966;-34.746;138.604;2023-02-28T05:14:03;101152.39;;;25.18;27.00
77778;BME280;66966;-34.746;138.604;2023-02-28T05:16:27;101149.07;;;25.36;27.02
77778;BME280;66966;-34.746;138.604;2023-02-28T05:18:52;101143.37;;;25.56;26.25
77778;BME280;66966;-34.746;138.604;2023-02-28T05:21:24;101148.08;;;25.68;26.19
77778;BME280;66966;-34.746;138.604;2023-02-28T05:23:43;101151.92;;;25.38;26.43
77778;BME280;66966;-34.746;138.604;2023-02-28T05:26:09;101151.21;;;25.54;25.59
77778;BME280;66966;-34.746;138.604;2023-02-28T05:28:33;101149.05;;;25.62;26.03
77778;BME280;66966;-34.746;138.604;2023-02-28T05:30:59;101146.30;;;25.69;26.14
77778;BME280;66966;-34.746;138.604;2023-02-28T05:33:24;101143.45;;;25.67;25.82
77778;BME280;66966;-34.746;138.604;2023-02-28T05:35:49;101142.54;;;25.73;25.26
77778;BME280;66966;-34.746;138.604;2023-02-28T05:38:15;101150.32;;;26.02;25.52
77778;BME280;66966;-34.746;138.604;2023-02-28T05:40:40;101157.51;;;26.06;25.58
77778;BME280;66966;-34.746;138.604;2023-02-28T05:43:05;101158.30;;;26.27;25.32
77778;BME280;66966;-34.746;138.604;2023-02-28T05:45:30;101156.34;;;26.40;24.72
77778;BME280;66966;-34.746;138.604;2023-02-28T05:47:56;101160.41;;;26.38;24.93
77778;BME280;66966;-34.746;138.604;2023-02-28T05:50:21;101165.35;;;26.32;24.78
77778;BME280;66966;-34.746;138.604;2023-02-28T05:52:50;101166.89;;;25.90;24.83
77778;BME280;66966;-34.746;138.604;2023-02-28T05:55:11;101173.41;;;25.95;24.93
77778;BME280;66966;-34.746;138.604;2023-02-28T05:57:37;101173.28;;;25.77;25.17
77778;BME280;66966;-34.746;138.604;2023-02-28T06:00:02;101169.32;;;25.52;25.35
77778;BME280;66966;-34.746;138.604;2023-02-28T06:02:28;101170.58;;;25.41;25.70
77778;BME280;66966;-34.746;138.604;2023-02-28T06:04:52;101172.17;;;25.28;25.63
77778;BME280;66966;-34.746;138.604;2023-02-28T06:07:18;101185.47;;;25.47;25.58
77778;BME280;66966;-34.746;138.604;2023-02-28T06:09:43;101185.10;;;25.28;25.73
77778;BME280;66966;-34.746;138.604;2023-02-28T06:12:09;101190.14;;;25.30;25.48
77778;BME280;66966;-34.746;138.604;2023-02-28T06:14:35;101185.50;;;25.43;25.65
77778;BME280;66966;-34.746;138.604;2023-02-28T06:17:00;101188.55;;;25.01;25.90
77778;BME280;66966;-34.746;138.604;2023-02-28T06:19:24;101189.74;;;25.10;26.00
77778;BME280;66966;-34.746;138.604;2023-02-28T06:21:51;101192.33;;;24.97;26.23
77778;BME280;66966;-34.746;138.604;2023-02-28T06:24:14;101188.92;;;24.97;26.32
77778;BME280;66966;-34.746;138.604;2023-02-28T06:26:40;101182.64;;;24.95;26.35
77778;BME280;66966;-34.746;138.604;2023-02-28T06:29:05;101189.86;;;25.08;26.20
77778;BME280;66966;-34.746;138.604;2023-02-28T06:31:30;101191.46;;;25.16;26.15
77778;BME280;66966;-34.746;138.604;2023-02-28T06:33:56;101191.90;;;25.00;25.94
77778;BME280;66966;-34.746;138.604;2023-02-28T06:36:21;101183.43;;;25.27;25.99
77778;BME280;66966;-34.746;138.604;2023-02-28T06:38:46;101184.08;;;24.73;26.16
77778;BME280;66966;-34.746;138.604;2023-02-28T06:41:12;101185.33;;;24.97;26.12
77778;BME280;66966;-34.746;138.604;2023-02-28T06:43:40;101183.59;;;25.30;26.23
77778;BME280;66966;-34.746;138.604;2023-02-28T06:46:05;101185.37;;;25.26;26.00
77778;BME280;66966;-34.746;138.604;2023-02-28T06:48:28;101185.08;;;25.13;25.99
77778;BME280;66966;-34.746;138.604;2023-02-28T06:51:00;101183.70;;;24.88;26.12
77778;BME280;66966;-34.746;138.604;2023-02-28T06:53:18;101180.28;;;25.01;26.21
77778;BME280;66966;-34.746;138.604;2023-02-28T06:55:43;101183.81;;;24.75;26.15
77778;BME280;66966;-34.746;138.604;2023-02-28T06:58:09;101184.22;;;25.06;26.15
77778;BME280;66966;-34.746;138.604;2023-02-28T07:00:34;101185.12;;;24.76;26.18
77778;BME280;66966;-34.746;138.604;2023-02-28T07:02:59;101185.66;;;24.84;26.10
77778;BME280;66966;-34.746;138.604;2023-02-28T07:05:24;101186.12;;;25.23;26.38
77778;BME280;66966;-34.746;138.604;2023-02-28T07:07:50;101188.45;;;25.14;26.11
77778;BME280;66966;-34.746;138.604;2023-02-28T07:10:15;101191.87;;;25.01;25.35
77778;BME280;66966;-34.746;138.604;2023-02-28T07:12:40;101194.64;;;24.97;25.68
77778;BME280;66966;-34.746;138.604;2023-02-28T07:15:07;101195.26;;;25.22;25.59
77778;BME280;66966;-34.746;138.604;2023-02-28T07:17:31;101198.38;;;25.18;25.70
77778;BME280;66966;-34.746;138.604;2023-02-28T07:19:56;101205.78;;;25.01;25.61
77778;BME280;66966;-34.746;138.604;2023-02-28T07:22:22;101211.68;;;24.98;25.45
77778;BME280;66966;-34.746;138.604;2023-02-28T07:24:47;101215.40;;;24.60;25.70
77778;BME280;66966;-34.746;138.604;2023-02-28T07:27:12;101216.41;;;24.72;25.57
77778;BME280;66966;-34.746;138.604;2023-02-28T07:29:37;101213.62;;;24.62;25.74
77778;BME280;66966;-34.746;138.604;2023-02-28T07:32:02;101212.72;;;24.58;25.76
77778;BME280;66966;-34.746;138.604;2023-02-28T07:34:28;101207.57;;;24.54;25.92
77778;BME280;66966;-34.746;138.604;2023-02-28T07:36:54;101210.96;;;24.55;25.72
77778;BME280;66966;-34.746;138.604;2023-02-28T07:39:18;101223.45;;;24.52;25.55
77778;BME280;66966;-34.746;138.604;2023-02-28T07:41:44;101224.55;;;24.40;25.25
77778;BME280;66966;-34.746;138.604;2023-02-28T07:44:09;101227.87;;;24.43;25.47
77778;BME280;66966;-34.746;138.604;2023-02-28T07:46:35;101219.90;;;24.54;25.47
77778;BME280;66966;-34.746;138.604;2023-02-28T07:49:00;101216.06;;;24.71;25.56
77778;BME280;66966;-34.746;138.604;2023-02-28T07:51:25;101217.35;;;24.71;25.23
77778;BME280;66966;-34.746;138.604;2023-02-28T07:53:50;101225.27;;;24.65;25.41
77778;BME280;66966;-34.746;138.604;2023-02-28T07:56:15;101223.65;;;24.52;25.39
77778;BME280;66966;-34.746;138.604;2023-02-28T07:58:41;101223.67;;;23.95;25.63
77778;BME280;66966;-34.746;138.604;2023-02-28T08:01:08;101225.32;;;24.36;25.36
77778;BME280;66966;-34.746;138.604;2023-02-28T08:03:31;101224.95;;;24.12;25.62
77778;BME280;66966;-34.746;138.604;2023-02-28T08:05:57;101221.41;;;24.37;25.63
77778;BME280;66966;-34.746;138.604;2023-02-28T08:08:22;101217.17;;;24.48;25.84
77778;BME280;66966;-34.746;138.604;2023-02-28T08:10:47;101217.47;;;23.98;25.84
77778;BME280;66966;-34.746;138.604;2023-02-28T08:13:13;101220.31;;;23.93;25.69
77778;BME280;66966;-34.746;138.604;2023-02-28T08:15:39;101215.78;;;23.85;25.66
77778;BME280;66966;-34.746;138.604;2023-02-28T08:18:04;101211.01;;;23.82;25.73
77778;BME280;66966;-34.746;138.604;2023-02-28T08:20:29;101212.52;;;24.25;25.65
77778;BME280;66966;-34.746;138.604;2023-02-28T08:22:54;101218.22;;;24.16;25.80
77778;BME280;66966;-34.746;138.604;2023-02-28T08:25:20;101225.00;;;23.91;25.87
77778;BME280;66966;-34.746;138.604;2023-02-28T08:27:45;101227.42;;;23.77;25.90
77778;BME280;66966;-34.746;138.604;2023-02-28T08:30:13;101216.48;;;24.12;25.37
77778;BME280;66966;-34.746;138.604;2023-02-28T08:32:35;101217.82;;;24.17;25.16
77778;BME280;66966;-34.746;138.604;2023-02-28T08:35:01;101220.62;;;24.14;25.08
77778;BME280;66966;-34.746;138.604;2023-02-28T08:37:26;101228.00;;;24.16;25.13
77778;BME280;66966;-34.746;138.604;2023-02-28T08:39:51;101237.41;;;24.21;25.00
77778;BME280;66966;-34.746;138.604;2023-02-28T08:42:17;101245.96;;;24.04;25.03
77778;BME280;66966;-34.746;138.604;2023-02-28T08:44:42;101248.58;;;24.02;25.08
77778;BME280;66966;-34.746;138.604;2023-02-28T08:47:07;101254.22;;;24.14;25.22
77778;BME280;66966;-34.746;138.604;2023-02-28T08:49:33;101251.73;;;24.03;25.21
77778;BME280;66966;-34.746;138.604;2023-02-28T08:52:00;101252.22;;;23.91;25.13
77778;BME280;66966;-34.746;138.604;2023-02-28T08:54:23;101251.47;;;23.98;25.40
77778;BME280;66966;-34.746;138.604;2023-02-28T08:56:49;101259.04;;;23.57;25.62
77778;BME280;66966;-34.746;138.604;2023-02-28T08:59:14;101263.57;;;23.67;25.68
77778;BME280;66966;-34.746;138.604;2023-02-28T09:01:40;101278.04;;;23.31;25.61
77778;BME280;66966;-34.746;138.604;2023-02-28T09:04:05;101287.19;;;23.37;25.75
77778;BME280;66966;-34.746;138.604;2023-02-28T09:06:30;101295.78;;;23.41;26.20
77778;BME280;66966;-34.746;138.604;2023-02-28T09:08:58;101306.29;;;23.13;26.27
77778;BME280;66966;-34.746;138.604;2023-02-28T09:11:21;101319.98;;;23.20;26.36
77778;BME280;66966;-34.746;138.604;2023-02-28T09:13:47;101323.76;;;22.98;26.60
77778;BME280;66966;-34.746;138.604;2023-02-28T09:16:13;101328.41;;;22.75;26.85
77778;BME280;66966;-34.746;138.604;2023-02-28T09:18:39;101336.56;;;22.62;27.05
77778;BME280;66966;-34.746;138.604;2023-02-28T09:21:04;101346.05;;;22.39;27.28
77778;BME280;66966;-34.746;138.604;2023-02-28T09:23:28;101349.90;;;22.39;27.66
77778;BME280;66966;-34.746;138.604;2023-02-28T09:25:54;101353.14;;;22.42;27.84
77778;BME280;66966;-34.746;138.604;2023-02-28T09:28:19;101359.21;;;22.02;28.22
77778;BME280;66966;-34.746;138.604;2023-02-28T09:30:45;101362.22;;;22.17;28.35
77778;BME280;66966;-34.746;138.604;2023-02-28T09:33:09;101372.98;;;22.25;28.92
77778;BME280;66966;-34.746;138.604;2023-02-28T09:35:34;101379.61;;;21.52;29.11
77778;BME280;66966;-34.746;138.604;2023-02-28T09:38:00;101381.61;;;21.72;29.41
77778;BME280;66966;-34.746;138.604;2023-02-28T09:40:26;101402.18;;;21.53;29.54
77778;BME280;66966;-34.746;138.604;2023-02-28T09:42:53;101409.42;;;21.32;29.45
77778;BME280;66966;-34.746;138.604;2023-02-28T09:45:23;101403.64;;;21.42;29.37
77778;BME280;66966;-34.746;138.604;2023-02-28T09:47:44;101414.49;;;21.27;29.08
77778;BME280;66966;-34.746;138.604;2023-02-28T09:50:16;101412.39;;;21.64;28.94
77778;BME280;66966;-34.746;138.604;2023-02-28T09:52:33;101419.45;;;21.66;28.99
77778;BME280;66966;-34.746;138.604;2023-02-28T09:55:04;101426.59;;;21.43;28.69
77778;BME280;66966;-34.746;138.604;2023-02-28T09:57:31;101428.05;;;21.39;28.61
77778;BME280;66966;-34.746;138.604;2023-02-28T09:59:56;101431.70;;;21.57;28.46
77778;BME280;66966;-34.746;138.604;2023-02-28T10:02:29;101434.29;;;21.40;28.41
77778;BME280;66966;-34.746;138.604;2023-02-28T10:04:46;101434.98;;;21.63;28.34
77778;BME280;66966;-34.746;138.604;2023-02-28T10:07:10;101431.26;;;21.41;28.25
77778;BME280;66966;-34.746;138.604;2023-02-28T10:09:33;101443.64;;;21.62;28.29
77778;BME280;66966;-34.746;138.604;2023-02-28T10:12:02;101448.97;;;21.34;28.29
77778;BME280;66966;-34.746;138.604;2023-02-28T10:14:24;101445.62;;;21.60;28.15
77778;BME280;66966;-34.746;138.604;2023-02-28T10:16:50;101445.17;;;21.22;28.42
77778;BME280;66966;-34.746;138.604;2023-02-28T10:19:17;101447.13;;;21.35;28.28
77778;BME280;66966;-34.746;138.604;2023-02-28T10:21:42;101456.14;;;21.18;28.55
77778;BME280;66966;-34.746;138.604;2023-02-28T10:24:14;101457.21;;;21.32;28.70
77778;BME280;66966;-34.746;138.604;2023-02-28T10:26:29;101463.38;;;21.09;28.76
77778;BME280;66966;-34.746;138.604;2023-02-28T10:28:55;101464.90;;;21.07;28.77
77778;BME280;66966;-34.746;138.604;2023-02-28T10:31:23;101470.41;;;21.09;28.92
77778;BME280;66966;-34.746;138.604;2023-02-28T10:33:46;101475.19;;;20.95;29.14
77778;BME280;66966;-34.746;138.604;2023-02-28T10:36:16;101481.85;;;21.31;29.30
77778;BME280;66966;-34.746;138.604;2023-02-28T10:38:38;101481.03;;;21.20;29.30
77778;BME280;66966;-34.746;138.604;2023-02-28T10:41:08;101487.54;;;21.07;29.29
77778;BME280;66966;-34.746;138.604;2023-02-28T10:43:26;101496.04;;;21.14;29.25
77778;BME280;66966;-34.746;138.604;2023-02-28T10:45:58;101502.35;;;21.16;29.38
77778;BME280;66966;-34.746;138.604;2023-02-28T10:48:27;101507.17;;;21.24;29.31
77778;BME280;66966;-34.746;138.604;2023-02-28T10:50:51;101513.81;;;20.96;29.48
77778;BME280;66966;-34.746;138.604;2023-02-28T10:53:17;101520.27;;;21.22;29.49
77778;BME280;66966;-34.746;138.604;2023-02-28T10:55:34;101527.97;;;21.13;29.82
77778;BME280;66966;-34.746;138.604;2023-02-28T10:57:59;101534.97;;;21.09;30.04
77778;BME280;66966;-34.746;138.604;2023-02-28T11:00:31;101538.29;;;20.83;30.52
77778;BME280;66966;-34.746;138.604;2023-02-28T11:02:52;101541.42;;;20.74;31.01
77778;BME280;66966;-34.746;138.604;2023-02-28T11:05:27;101541.16;;;20.62;31.17
77778;BME280;66966;-34.746;138.604;2023-02-28T11:07:41;101536.73;;;20.26;31.42
77778;BME280;66966;-34.746;138.604;2023-02-28T11:10:07;101545.82;;;20.61;31.72
77778;BME280;66966;-34.746;138.604;2023-02-28T11:12:37;101549.09;;;20.50;31.87
77778;BME280;66966;-34.746;138.604;2023-02-28T11:14:59;101551.57;;;20.28;31.87
77778;BME280;66966;-34.746;138.604;2023-02-28T11:17:24;101551.69;;;20.51;31.76
77778;BME280;66966;-34.746;138.604;2023-02-28T11:19:51;101554.25;;;20.48;31.65
77778;BME280;66966;-34.746;138.604;2023-02-28T11:22:18;101557.26;;;20.79;31.46
77778;BME280;66966;-34.746;138.604;2023-02-28T11:24:43;101559.58;;;20.56;31.46
77778;BME280;66966;-34.746;138.604;2023-02-28T11:27:05;101559.86;;;20.55;31.41
77778;BME280;66966;-34.746;138.604;2023-02-28T11:29:32;101559.83;;;20.79;31.45
77778;BME280;66966;-34.746;138.604;2023-02-28T11:32:11;101560.18;;;20.77;31.32
77778;BME280;66966;-34.746;138.604;2023-02-28T11:34:26;101566.25;;;20.81;31.28
77778;BME280;66966;-34.746;138.604;2023-02-28T11:36:46;101564.65;;;20.46;31.23
77778;BME280;66966;-34.746;138.604;2023-02-28T11:39:13;101570.77;;;20.85;31.29
77778;BME280;66966;-34.746;138.604;2023-02-28T11:41:54;101577.26;;;20.41;31.84
77778;BME280;66966;-34.746;138.604;2023-02-28T11:46:33;101577.21;;;20.51;31.79
77778;BME280;66966;-34.746;138.604;2023-02-28T11:49:01;101577.73;;;20.45;31.81
77778;BME280;66966;-34.746;138.604;2023-02-28T11:51:23;101578.62;;;20.32;32.16
77778;BME280;66966;-34.746;138.604;2023-02-28T11:53:56;101586.91;;;20.11;32.20
77778;BME280;66966;-34.746;138.604;2023-02-28T11:56:14;101584.95;;;20.39;32.19
77778;BME280;66966;-34.746;138.604;2023-02-28T11:58:43;101584.57;;;20.32;32.35
77778;BME280;66966;-34.746;138.604;2023-02-28T12:01:19;101581.98;;;20.35;32.34
77778;BME280;66966;-34.746;138.604;2023-02-28T12:03:35;101583.82;;;20.36;32.47
77778;BME280;66966;-34.746;138.604;2023-02-28T12:06:07;101576.26;;;20.12;32.42
77778;BME280;66966;-34.746;138.604;2023-02-28T12:08:28;101578.51;;;20.16;32.41
77778;BME280;66966;-34.746;138.604;2023-02-28T12:10:52;101575.34;;;20.14;32.38
77778;BME280;66966;-34.746;138.604;2023-02-28T12:13:18;101573.07;;;20.16;32.38
77778;BME280;66966;-34.746;138.604;2023-02-28T12:15:47;101576.50;;;20.24;32.20
77778;BME280;66966;-34.746;138.604;2023-02-28T12:18:12;101577.65;;;20.43;32.07
77778;BME280;66966;-34.746;138.604;2023-02-28T12:20:31;101581.87;;;20.24;31.83
77778;BME280;66966;-34.746;138.604;2023-02-28T12:22:58;101581.78;;;20.44;31.76
77778;BME280;66966;-34.746;138.604;2023-02-28T12:27:43;101583.49;;;20.05;31.61